• Join FlightAware (Why Join?)
  • Login
  • US Flag 
09:43PM EDT


 

Airport Tracker/Info


-or-


 

Live Flight TrackerFlight Track Log ✈ AMF1026 ✈ 30-Apr-2013 ✈ KALB - KCVG

Flight Track Log - Related Links

Times and Time Zones

All times are in EDT time to prevent confusion due to time zone crossing. See the AMF1026 flight status page for this flight to view local times or setup timezone preferences in your user account.

Time Position Orientation Groundspeed Altitude Reporting Facility
EDT Latitude Longitude Course Direction KTS MPH feet Rate Location/Type
09:06PM 42.7256 -73.8108 187° South 136 157 1,100  Level Boston Center
09:08PM 42.6797 -73.8183 187° South 182 209 3,000 1,680 Climbing Boston Center
09:09PM 42.6931 -73.9231 280° West 203 234 5,400 1,620 Climbing Boston Center
09:10PM 42.7064 -73.9997 283° West 203 234 7,000 1,320 Climbing Boston Center
09:11PM 42.7011 -74.0786 265° West 203 234 8,400 1,500 Climbing Boston Center
09:12PM 42.6958 -74.1661 265° West 202 232 10,300 1,500 Climbing Boston Center
09:13PM 42.6758 -74.2419 250° West 202 232 11,500 1,200 Climbing Boston Center
09:14PM 42.6622 -74.3150 256° West 207 238 12,800 1,200 Climbing Boston Center
09:15PM 42.6586 -74.3967 267° West 207 238 13,900 1,140 Climbing Boston Center
09:16PM 42.6511 -74.4756 263° West 214 246 15,100 960 Climbing Boston Center
09:17PM 42.6311 -74.5453 249° West 214 246 15,900 420 Climbing Boston Center
09:18PM 42.5983 -74.6233 240° Southwest 225 259 16,000  Climbing Boston Center
09:19PM 42.5742 -74.6900 244° Southwest 243 280 16,000  Level Boston Center
09:20PM 42.5447 -74.8017 250° West 263 303 16,000  Level Boston Center
09:21PM 42.5281 -74.8911 256° West 263 303 16,000  Level Boston Center
09:22PM 42.5178 -74.9867 262° West 258 297 16,000  Level Boston Center
09:23PM 42.5072 -75.0764 261° West 258 297 16,000  Level Boston Center
09:24PM 42.4867 -75.1628 252° West 253 291 16,000  Level Boston Center
09:26PM 42.4406 -75.3000 246° West 243 280 16,000  Level New York Center
09:27PM 42.4144 -75.3850 247° West 243 280 16,000  Level New York Center
09:28PM 42.3822 -75.4669 242° Southwest 248 285 16,000  Level New York Center
09:29PM 42.3458 -75.5431 237° Southwest 248 285 16,000  Level New York Center
09:30PM 42.3114 -75.6244 240° Southwest 248 285 16,000  Level New York Center
09:31PM 42.2789 -75.7064 242° Southwest 248 285 16,000  Level New York Center
09:32PM 42.2542 -75.7942 249° West 253 291 16,000  Level New York Center
09:33PM 42.2297 -75.8817 249° West 253 291 16,000  Level New York Center
09:34PM 42.2092 -75.9697 253° West 248 285 16,000  Level New York Center
09:35PM 42.1847 -76.0547 249° West 248 285 16,000  Level New York Center
09:36PM 42.1519 -76.1386 242° Southwest 248 285 16,000  Level New York Center
09:37PM 42.1167 -76.2253 241° Southwest 253 291 16,000  Level New York Center
09:38PM 42.0817 -76.3061 240° Southwest 253 291 16,000  Level New York Center
09:39PM 42.0444 -76.3897 239° Southwest 259 298 16,000  Level New York Center
09:40PM 42.0050 -76.4728 237° Southwest 259 298 16,000  Level New York Center
09:41PM 41.9700 -76.5536 240° Southwest 259 298 16,000  Level New York Center
09:42PM 41.9325 -76.6367 239° Southwest 259 298 16,000  Level New York Center
09:43PM 41.9011 -76.7231 244° Southwest 259 298 16,000  Level New York Center
09:44PM 41.8697 -76.8094 244° Southwest 259 298 16,000  Level New York Center
09:45PM 41.8386 -76.8928 243° Southwest 259 298 16,000  Level New York Center
09:46PM 41.8089 -76.9792 245° Southwest 259 298 16,000  Level New York Center
09:48PM 41.7633 -77.1700 252° West 256 295 16,000  Level Cleveland Center
09:49PM 41.7472 -77.2600 257° West 251 289 16,000  Level Cleveland Center
09:50PM 41.7267 -77.3472 253° West 251 289 16,000  Level Cleveland Center
09:51PM 41.7019 -77.4319 249° West 246 283 16,000  Level Cleveland Center
09:52PM 41.6772 -77.5194 249° West 246 283 16,000  Level Cleveland Center
09:53PM 41.6481 -77.5986 244° Southwest 251 289 16,000  Level Cleveland Center
09:54PM 41.6125 -77.6753 238° Southwest 251 289 16,000  Level Cleveland Center
09:55PM 41.5811 -77.7544 242° Southwest 251 289 16,000  Level Cleveland Center
09:56PM 41.5519 -77.8361 245° Southwest 251 289 16,000  Level Cleveland Center
09:57PM 41.5308 -77.9175 251° West 240 276 16,000  Level Cleveland Center
09:58PM 41.5078 -78.0017 250° West 240 276 16,000  Level Cleveland Center
09:59PM 41.4806 -78.0858 247° West 235 270 16,000  Level Cleveland Center
10:00PM 41.4531 -78.1672 246° West 240 276 16,000  Level Cleveland Center
10:01PM 41.4256 -78.2458 245° Southwest 240 276 16,000  Level Cleveland Center
10:02PM 41.4042 -78.3242 250° West 240 276 16,000  Level Cleveland Center
10:03PM 41.3806 -78.4053 249° West 240 276 16,000  Level Cleveland Center
10:04PM 41.3553 -78.4919 249° West 245 282 16,000  Level Cleveland Center
10:05PM 41.3317 -78.5756 249° West 245 282 16,000  Level Cleveland Center
10:06PM 41.3122 -78.6592 253° West 245 282 16,000  Level Cleveland Center
10:07PM 41.2886 -78.7400 249° West 245 282 16,000  Level Cleveland Center
10:08PM 41.2647 -78.8208 249° West 245 282 16,000  Level Cleveland Center
10:09PM 41.2431 -78.9042 251° West 245 282 16,000  Level Cleveland Center
10:10PM 41.2172 -78.9878 248° West 245 282 16,000  Level Cleveland Center
10:12PM 41.1694 -79.1653 250° West 250 288 16,000  Level Cleveland Center
10:13PM 41.1456 -79.2486 249° West 250 288 16,000  Level Cleveland Center
10:14PM 41.1319 -79.3317 258° West 250 288 16,000 -60 Level Cleveland Center
10:15PM 41.1097 -79.4203 252° West 255 293 15,900 -60 Descending Cleveland Center
10:16PM 41.0897 -79.5058 253° West 255 293 15,900  Level Cleveland Center
10:18PM 41.0433 -79.6775 250° West 250 288 15,900  Level Cleveland Center
10:19PM 41.0064 -79.7606 240° Southwest 255 293 15,900  Level Cleveland Center
10:20PM 40.9653 -79.8381 235° Southwest 266 306 15,900  Level Cleveland Center
10:21PM 40.9261 -79.9153 236° Southwest 266 306 15,900  Level Cleveland Center
10:22PM 40.8869 -79.9981 238° Southwest 266 306 15,900  Level Cleveland Center
10:23PM 40.8542 -80.0917 245° Southwest 261 300 16,000  Climbing Cleveland Center
10:24PM 40.8294 -80.1825 250° West 256 295 16,000  Level Cleveland Center
10:25PM 40.7983 -80.2703 245° Southwest 261 300 16,000  Level Cleveland Center
10:26PM 40.7506 -80.3419 229° Southwest 261 300 16,000  Level Cleveland Center
10:27PM 40.7111 -80.4242 238° Southwest 277 319 16,000  Level Cleveland Center
10:28PM 40.6653 -80.5036 233° Southwest 271 312 16,000  Level Cleveland Center
10:29PM 40.6217 -80.5803 233° Southwest 271 312 16,000  Level Cleveland Center
10:30PM 40.5842 -80.6569 237° Southwest 271 312 16,000  Level Cleveland Center
10:31PM 40.5422 -80.7361 235° Southwest 266 306 16,000  Level Cleveland Center
10:32PM 40.5025 -80.8178 237° Southwest 266 306 16,000  Level Cleveland Center
10:33PM 40.4608 -80.8942 234° Southwest 266 306 16,000  Level Cleveland Center
10:34PM 40.4167 -80.9731 234° Southwest 266 306 16,000  Level Cleveland Center
10:35PM 40.3725 -81.0492 233° Southwest 271 312 16,000  Level Cleveland Center
10:36PM 40.3286 -81.1250 233° Southwest 271 312 16,000  Level Cleveland Center
10:37PM 40.2822 -81.2008 231° Southwest 271 312 16,000  Level Cleveland Center
10:39PM 40.2056 -81.3453 235° Southwest 263 303 16,000  Level Indianapolis Center
10:40PM 40.1642 -81.4244 236° Southwest 262 302 16,000  Level Indianapolis Center
10:41PM 40.1258 -81.5067 239° Southwest 263 303 16,000  Level Indianapolis Center
10:42PM 40.0900 -81.5908 241° Southwest 262 302 16,000  Level Indianapolis Center
10:43PM 40.0536 -81.6733 240° Southwest 261 300 16,000  Level Indianapolis Center
10:44PM 40.0164 -81.7564 240° Southwest 262 302 16,000  Level Indianapolis Center
10:45PM 39.9686 -81.8483 236° Southwest 262 302 16,000  Level Indianapolis Center
10:46PM 39.9264 -81.9281 235° Southwest 265 305 16,000  Level Indianapolis Center
10:47PM 39.9064 -82.0183 254° West 258 297 16,000  Level Indianapolis Center
10:48PM 39.8878 -82.1103 255° West 261 300 16,000 -60 Level Indianapolis Center
10:49PM 39.8672 -82.2008 254° West 259 298 15,900 -60 Descending Indianapolis Center
10:50PM 39.8458 -82.2911 253° West 260 299 15,900  Level Indianapolis Center
10:51PM 39.8139 -82.3786 245° Southwest 264 304 15,900  Level Indianapolis Center
10:53PM 39.7528 -82.5528 246° West 266 306 15,900  Level Indianapolis Center
10:54PM 39.7211 -82.6389 244° Southwest 263 303 15,900  Level Indianapolis Center
10:55PM 39.6900 -82.7242 245° Southwest 261 300 15,900  Level Indianapolis Center
10:56PM 39.6600 -82.8106 246° West 261 300 15,900  Level Indianapolis Center
10:57PM 39.6286 -82.8969 245° Southwest 261 300 15,900  Level Indianapolis Center
10:58PM 39.5972 -82.9825 245° Southwest 260 299 15,900  Level Indianapolis Center
10:59PM 39.5653 -83.0686 244° Southwest 261 300 15,900  Level Indianapolis Center
11:00PM 39.5331 -83.1550 244° Southwest 262 302 15,900  Level Indianapolis Center
11:01PM 39.5022 -83.2419 245° Southwest 262 302 15,900 -180 Level Indianapolis Center
11:02PM 39.4708 -83.3278 245° Southwest 261 300 15,600 -720 Descending Indianapolis Center
11:03PM 39.4353 -83.4242 244° Southwest 290 334 14,500 -1,260 Descending Indianapolis Center
11:04PM 39.4036 -83.5250 248° West 300 345 13,100 -1,380 Descending Indianapolis Center
11:05PM 39.3747 -83.6225 249° West 289 333 11,700 -1,080 Descending Indianapolis Center
11:06PM 39.3506 -83.7317 254° West 270 311 11,000 -420 Descending Indianapolis Center
11:07PM 39.3319 -83.8197 255° West 254 292 10,900 -60 Descending Indianapolis Center
11:08PM 39.3075 -83.9097 251° West 262 302 10,900  Level Indianapolis Center
11:09PM 39.2822 -83.9994 250° West 262 302 10,900  Level Indianapolis Center
11:10PM 39.2542 -84.0853 247° West 260 299 10,900  Level Indianapolis Center
11:11PM 39.2250 -84.1719 247° West 261 300 10,900 -420 Level Indianapolis Center
11:12PM 39.1950 -84.2575 246° West 260 299 10,100 -1,140 Descending Indianapolis Center
11:13PM 39.1853 -84.3492 262° West 258 297 8,600 -1,440 Descending Indianapolis Center
11:14PM 39.1822 -84.4414 268° West 256 295 7,200 -1,320 Descending Indianapolis Center
11:15PM 39.1839 -84.5328 271° West 253 291 5,900 -1,560 Descending Indianapolis Center
11:17PM 39.1886 -84.6114 274° West 229 264 4,100 -1,260 Descending Indianapolis Center
11:18PM 39.1881 -84.6928 270° West 218 251 3,400 -960 Descending Indianapolis Center
11:19PM 39.1333 -84.6833 172° South 104 120 2,200 -900 Descending Cincinnati TRACON
11:19PM 39.1167 -84.6833 180° South 108 124 1,800 -600 Descending Cincinnati TRACON
11:20PM 39.0833 -84.6833 180° South 115 132 1,200 -600 Descending Cincinnati TRACON
11:22PM 39.0488 -84.6678 247° West  Level Estimated
11:29PM 39.0488 -84.6678 247° West  Level Estimated
11:30PM 39.0488 -84.6678 247° West  Level Estimated
11:31PM 39.0488 -84.6678 247° West  Level Estimated
11:32PM 39.0488 -84.6678 247° West  Level Estimated
11:33PM 39.0488 -84.6678 247° West  Level Estimated
11:34PM 39.0488 -84.6678 247° West  Level Estimated
11:35PM 39.0488 -84.6678 247° West  Level Estimated